sensor_id;sensor_type;location;lat;lon;timestamp;P1;durP1;ratioP1;P2;durP2;ratioP2
286;SDS011;127;48.770;9.212;2023-12-29T00:02:06;11.53;;;2.93;;
286;SDS011;127;48.770;9.212;2023-12-29T00:04:35;3.60;;;2.83;;
286;SDS011;127;48.770;9.212;2023-12-29T00:07:04;7.60;;;3.20;;
286;SDS011;127;48.770;9.212;2023-12-29T00:09:34;3.57;;;3.43;;
286;SDS011;127;48.770;9.212;2023-12-29T00:12:11;5.40;;;3.70;;
286;SDS011;127;48.770;9.212;2023-12-29T00:14:42;5.17;;;3.60;;
286;SDS011;127;48.770;9.212;2023-12-29T00:17:14;3.93;;;3.33;;
286;SDS011;127;48.770;9.212;2023-12-29T00:19:42;4.73;;;3.13;;
286;SDS011;127;48.770;9.212;2023-12-29T00:22:17;11.67;;;3.40;;
286;SDS011;127;48.770;9.212;2023-12-29T00:24:48;6.77;;;3.50;;
286;SDS011;127;48.770;9.212;2023-12-29T00:27:20;5.17;;;3.30;;
286;SDS011;127;48.770;9.212;2023-12-29T00:29:49;5.90;;;3.73;;
286;SDS011;127;48.770;9.212;2023-12-29T00:32:18;3.43;;;3.13;;
286;SDS011;127;48.770;9.212;2023-12-29T00:34:46;3.33;;;2.90;;
286;SDS011;127;48.770;9.212;2023-12-29T00:37:15;5.13;;;3.27;;
286;SDS011;127;48.770;9.212;2023-12-29T00:39:50;3.77;;;3.40;;
286;SDS011;127;48.770;9.212;2023-12-29T00:42:22;8.70;;;2.97;;
286;SDS011;127;48.770;9.212;2023-12-29T00:44:51;3.63;;;2.77;;
286;SDS011;127;48.770;9.212;2023-12-29T00:47:20;6.93;;;3.20;;
286;SDS011;127;48.770;9.212;2023-12-29T00:49:48;3.00;;;2.90;;
286;SDS011;127;48.770;9.212;2023-12-29T00:52:17;4.33;;;3.50;;
286;SDS011;127;48.770;9.212;2023-12-29T00:54:46;4.20;;;3.20;;
286;SDS011;127;48.770;9.212;2023-12-29T00:57:15;5.10;;;3.27;;
286;SDS011;127;48.770;9.212;2023-12-29T00:59:49;5.70;;;3.30;;
286;SDS011;127;48.770;9.212;2023-12-29T01:02:17;4.83;;;3.00;;
286;SDS011;127;48.770;9.212;2023-12-29T01:04:46;5.53;;;4.03;;
286;SDS011;127;48.770;9.212;2023-12-29T01:07:15;5.10;;;3.23;;
286;SDS011;127;48.770;9.212;2023-12-29T01:10:05;4.70;;;3.90;;
286;SDS011;127;48.770;9.212;2023-12-29T01:12:38;5.33;;;3.57;;
286;SDS011;127;48.770;9.212;2023-12-29T01:15:10;5.33;;;3.73;;
286;SDS011;127;48.770;9.212;2023-12-29T01:17:45;8.60;;;3.20;;
286;SDS011;127;48.770;9.212;2023-12-29T01:20:14;6.07;;;4.60;;
286;SDS011;127;48.770;9.212;2023-12-29T01:22:45;5.70;;;4.23;;
286;SDS011;127;48.770;9.212;2023-12-29T01:25:14;7.70;;;3.23;;
286;SDS011;127;48.770;9.212;2023-12-29T01:27:45;7.60;;;3.20;;
286;SDS011;127;48.770;9.212;2023-12-29T01:30:17;4.70;;;3.67;;
286;SDS011;127;48.770;9.212;2023-12-29T01:32:47;5.23;;;3.60;;
286;SDS011;127;48.770;9.212;2023-12-29T01:35:16;10.30;;;3.47;;
286;SDS011;127;48.770;9.212;2023-12-29T01:37:46;4.80;;;3.10;;
286;SDS011;127;48.770;9.212;2023-12-29T01:40:15;5.00;;;3.90;;
286;SDS011;127;48.770;9.212;2023-12-29T01:42:44;5.57;;;3.97;;
286;SDS011;127;48.770;9.212;2023-12-29T01:45:19;4.83;;;3.80;;
286;SDS011;127;48.770;9.212;2023-12-29T01:47:49;4.30;;;3.33;;
286;SDS011;127;48.770;9.212;2023-12-29T01:50:20;7.77;;;4.27;;
286;SDS011;127;48.770;9.212;2023-12-29T01:52:50;6.10;;;4.27;;
286;SDS011;127;48.770;9.212;2023-12-29T01:55:20;5.50;;;3.80;;
286;SDS011;127;48.770;9.212;2023-12-29T01:57:49;6.13;;;3.70;;
286;SDS011;127;48.770;9.212;2023-12-29T02:00:23;4.93;;;3.83;;
286;SDS011;127;48.770;9.212;2023-12-29T02:02:52;6.07;;;4.23;;
286;SDS011;127;48.770;9.212;2023-12-29T02:05:27;8.00;;;4.07;;
286;SDS011;127;48.770;9.212;2023-12-29T02:07:58;6.40;;;3.80;;
286;SDS011;127;48.770;9.212;2023-12-29T02:10:27;6.30;;;3.70;;
286;SDS011;127;48.770;9.212;2023-12-29T02:12:56;12.03;;;4.30;;
286;SDS011;127;48.770;9.212;2023-12-29T02:15:28;7.17;;;4.00;;
286;SDS011;127;48.770;9.212;2023-12-29T02:17:59;5.87;;;3.90;;
286;SDS011;127;48.770;9.212;2023-12-29T02:20:28;4.30;;;4.00;;
286;SDS011;127;48.770;9.212;2023-12-29T02:22:58;6.47;;;4.17;;
286;SDS011;127;48.770;9.212;2023-12-29T02:25:30;7.07;;;4.43;;
286;SDS011;127;48.770;9.212;2023-12-29T02:28:07;5.03;;;3.93;;
286;SDS011;127;48.770;9.212;2023-12-29T02:30:43;6.10;;;4.17;;
286;SDS011;127;48.770;9.212;2023-12-29T02:33:14;5.20;;;4.30;;
286;SDS011;127;48.770;9.212;2023-12-29T02:35:45;8.50;;;3.97;;
286;SDS011;127;48.770;9.212;2023-12-29T02:38:17;7.43;;;4.60;;
286;SDS011;127;48.770;9.212;2023-12-29T02:40:52;12.90;;;4.77;;
286;SDS011;127;48.770;9.212;2023-12-29T02:43:22;7.33;;;4.50;;
286;SDS011;127;48.770;9.212;2023-12-29T02:45:53;5.50;;;3.80;;
286;SDS011;127;48.770;9.212;2023-12-29T02:48:24;6.40;;;4.30;;
286;SDS011;127;48.770;9.212;2023-12-29T02:50:56;6.07;;;4.07;;
286;SDS011;127;48.770;9.212;2023-12-29T02:53:32;4.77;;;3.90;;
286;SDS011;127;48.770;9.212;2023-12-29T02:56:04;4.80;;;3.70;;
286;SDS011;127;48.770;9.212;2023-12-29T02:58:38;10.30;;;4.33;;
286;SDS011;127;48.770;9.212;2023-12-29T03:01:07;5.73;;;4.30;;
286;SDS011;127;48.770;9.212;2023-12-29T03:03:36;6.77;;;4.80;;
286;SDS011;127;48.770;9.212;2023-12-29T03:06:05;7.17;;;4.40;;
286;SDS011;127;48.770;9.212;2023-12-29T03:08:39;5.77;;;4.13;;
286;SDS011;127;48.770;9.212;2023-12-29T03:11:11;7.97;;;4.33;;
286;SDS011;127;48.770;9.212;2023-12-29T03:13:49;4.63;;;4.03;;
286;SDS011;127;48.770;9.212;2023-12-29T03:16:21;4.97;;;3.90;;
286;SDS011;127;48.770;9.212;2023-12-29T03:18:50;13.60;;;4.33;;
286;SDS011;127;48.770;9.212;2023-12-29T03:21:18;5.13;;;4.00;;
286;SDS011;127;48.770;9.212;2023-12-29T03:23:47;8.50;;;4.50;;
286;SDS011;127;48.770;9.212;2023-12-29T03:26:19;8.97;;;5.27;;
286;SDS011;127;48.770;9.212;2023-12-29T03:28:48;10.80;;;5.50;;
286;SDS011;127;48.770;9.212;2023-12-29T03:31:17;9.40;;;4.87;;
286;SDS011;127;48.770;9.212;2023-12-29T03:33:52;8.53;;;5.53;;
286;SDS011;127;48.770;9.212;2023-12-29T03:36:21;6.63;;;4.97;;
286;SDS011;127;48.770;9.212;2023-12-29T03:38:50;8.80;;;4.60;;
286;SDS011;127;48.770;9.212;2023-12-29T03:41:21;13.47;;;5.20;;
286;SDS011;127;48.770;9.212;2023-12-29T03:43:53;7.17;;;4.77;;
286;SDS011;127;48.770;9.212;2023-12-29T03:46:24;7.87;;;4.57;;
286;SDS011;127;48.770;9.212;2023-12-29T03:48:53;3.63;;;3.13;;
286;SDS011;127;48.770;9.212;2023-12-29T03:51:22;5.50;;;4.20;;
286;SDS011;127;48.770;9.212;2023-12-29T03:53:51;5.10;;;3.90;;
286;SDS011;127;48.770;9.212;2023-12-29T03:56:22;5.13;;;4.37;;
286;SDS011;127;48.770;9.212;2023-12-29T03:58:51;5.53;;;4.40;;
286;SDS011;127;48.770;9.212;2023-12-29T04:01:20;8.27;;;3.93;;
286;SDS011;127;48.770;9.212;2023-12-29T04:03:50;5.50;;;3.53;;
286;SDS011;127;48.770;9.212;2023-12-29T04:06:19;5.73;;;3.70;;
286;SDS011;127;48.770;9.212;2023-12-29T04:08:48;6.10;;;4.87;;
286;SDS011;127;48.770;9.212;2023-12-29T04:11:17;5.87;;;4.30;;
286;SDS011;127;48.770;9.212;2023-12-29T04:13:50;6.97;;;4.10;;
286;SDS011;127;48.770;9.212;2023-12-29T04:16:19;5.60;;;4.03;;
286;SDS011;127;48.770;9.212;2023-12-29T04:18:48;7.10;;;4.63;;
286;SDS011;127;48.770;9.212;2023-12-29T04:21:17;5.10;;;4.23;;
286;SDS011;127;48.770;9.212;2023-12-29T04:23:46;7.87;;;4.00;;
286;SDS011;127;48.770;9.212;2023-12-29T04:26:15;4.53;;;3.50;;
286;SDS011;127;48.770;9.212;2023-12-29T04:28:44;4.03;;;3.40;;
286;SDS011;127;48.770;9.212;2023-12-29T04:31:15;6.10;;;3.83;;
286;SDS011;127;48.770;9.212;2023-12-29T04:33:44;4.77;;;3.80;;
286;SDS011;127;48.770;9.212;2023-12-29T04:36:15;5.90;;;4.07;;
286;SDS011;127;48.770;9.212;2023-12-29T04:38:44;4.10;;;3.43;;
286;SDS011;127;48.770;9.212;2023-12-29T04:41:13;7.03;;;4.23;;
286;SDS011;127;48.770;9.212;2023-12-29T04:43:42;6.10;;;3.90;;
286;SDS011;127;48.770;9.212;2023-12-29T04:46:11;8.57;;;4.20;;
286;SDS011;127;48.770;9.212;2023-12-29T04:48:43;4.23;;;3.67;;
286;SDS011;127;48.770;9.212;2023-12-29T04:51:12;4.77;;;3.77;;
286;SDS011;127;48.770;9.212;2023-12-29T04:53:40;7.50;;;3.77;;
286;SDS011;127;48.770;9.212;2023-12-29T04:56:09;5.17;;;4.10;;
286;SDS011;127;48.770;9.212;2023-12-29T04:58:38;5.43;;;4.17;;
286;SDS011;127;48.770;9.212;2023-12-29T05:01:07;5.63;;;3.77;;
286;SDS011;127;48.770;9.212;2023-12-29T05:03:36;7.53;;;4.30;;
286;SDS011;127;48.770;9.212;2023-12-29T05:06:08;5.70;;;4.63;;
286;SDS011;127;48.770;9.212;2023-12-29T05:08:38;6.03;;;4.37;;
286;SDS011;127;48.770;9.212;2023-12-29T05:11:07;4.37;;;3.30;;
286;SDS011;127;48.770;9.212;2023-12-29T05:13:35;7.00;;;4.20;;
286;SDS011;127;48.770;9.212;2023-12-29T05:16:05;6.23;;;4.07;;
286;SDS011;127;48.770;9.212;2023-12-29T05:18:40;4.30;;;3.60;;
286;SDS011;127;48.770;9.212;2023-12-29T05:21:16;5.40;;;4.10;;
286;SDS011;127;48.770;9.212;2023-12-29T05:23:46;4.80;;;4.00;;
286;SDS011;127;48.770;9.212;2023-12-29T05:26:18;4.07;;;3.83;;
286;SDS011;127;48.770;9.212;2023-12-29T05:28:47;6.10;;;4.10;;
286;SDS011;127;48.770;9.212;2023-12-29T05:31:15;5.60;;;4.33;;
286;SDS011;127;48.770;9.212;2023-12-29T05:33:44;5.47;;;3.77;;
286;SDS011;127;48.770;9.212;2023-12-29T05:36:16;5.47;;;4.40;;
286;SDS011;127;48.770;9.212;2023-12-29T05:38:55;9.33;;;5.73;;
286;SDS011;127;48.770;9.212;2023-12-29T05:41:24;5.70;;;4.40;;
286;SDS011;127;48.770;9.212;2023-12-29T05:43:53;5.50;;;4.30;;
286;SDS011;127;48.770;9.212;2023-12-29T05:46:23;6.37;;;4.57;;
286;SDS011;127;48.770;9.212;2023-12-29T05:48:52;7.07;;;4.70;;
286;SDS011;127;48.770;9.212;2023-12-29T05:51:23;9.80;;;4.77;;
286;SDS011;127;48.770;9.212;2023-12-29T05:53:52;6.57;;;4.80;;
286;SDS011;127;48.770;9.212;2023-12-29T05:56:24;5.97;;;4.50;;
286;SDS011;127;48.770;9.212;2023-12-29T05:58:53;5.57;;;4.67;;
286;SDS011;127;48.770;9.212;2023-12-29T06:01:22;6.70;;;4.70;;
286;SDS011;127;48.770;9.212;2023-12-29T06:03:51;10.17;;;4.73;;
286;SDS011;127;48.770;9.212;2023-12-29T06:06:25;9.83;;;4.57;;
286;SDS011;127;48.770;9.212;2023-12-29T06:08:55;6.80;;;4.30;;
286;SDS011;127;48.770;9.212;2023-12-29T06:11:24;8.80;;;4.60;;
286;SDS011;127;48.770;9.212;2023-12-29T06:13:53;6.83;;;4.53;;
286;SDS011;127;48.770;9.212;2023-12-29T06:16:22;5.30;;;4.20;;
286;SDS011;127;48.770;9.212;2023-12-29T06:18:52;6.87;;;4.50;;
286;SDS011;127;48.770;9.212;2023-12-29T06:21:22;6.03;;;4.37;;
286;SDS011;127;48.770;9.212;2023-12-29T06:23:54;6.10;;;4.43;;
286;SDS011;127;48.770;9.212;2023-12-29T06:26:23;7.20;;;4.50;;
286;SDS011;127;48.770;9.212;2023-12-29T06:28:51;7.00;;;4.27;;
286;SDS011;127;48.770;9.212;2023-12-29T06:31:20;5.17;;;4.30;;
286;SDS011;127;48.770;9.212;2023-12-29T06:33:49;6.03;;;4.27;;
286;SDS011;127;48.770;9.212;2023-12-29T06:36:18;7.77;;;4.70;;
286;SDS011;127;48.770;9.212;2023-12-29T06:38:47;6.00;;;4.00;;
286;SDS011;127;48.770;9.212;2023-12-29T06:41:23;5.80;;;4.80;;
286;SDS011;127;48.770;9.212;2023-12-29T06:43:52;6.23;;;4.00;;
286;SDS011;127;48.770;9.212;2023-12-29T06:46:21;9.60;;;4.17;;
286;SDS011;127;48.770;9.212;2023-12-29T06:48:50;5.70;;;3.80;;
286;SDS011;127;48.770;9.212;2023-12-29T06:51:19;5.87;;;3.83;;
286;SDS011;127;48.770;9.212;2023-12-29T06:53:51;7.10;;;4.03;;
286;SDS011;127;48.770;9.212;2023-12-29T06:56:22;6.40;;;4.80;;
286;SDS011;127;48.770;9.212;2023-12-29T06:58:51;5.00;;;3.70;;
286;SDS011;127;48.770;9.212;2023-12-29T07:01:20;6.00;;;4.00;;
286;SDS011;127;48.770;9.212;2023-12-29T07:03:49;6.53;;;4.40;;
286;SDS011;127;48.770;9.212;2023-12-29T07:06:18;7.50;;;4.30;;
286;SDS011;127;48.770;9.212;2023-12-29T07:08:47;17.30;;;4.37;;
286;SDS011;127;48.770;9.212;2023-12-29T07:11:16;5.13;;;3.57;;
286;SDS011;127;48.770;9.212;2023-12-29T07:13:48;8.80;;;4.70;;
286;SDS011;127;48.770;9.212;2023-12-29T07:16:17;7.63;;;4.00;;
286;SDS011;127;48.770;9.212;2023-12-29T07:18:46;6.73;;;4.20;;
286;SDS011;127;48.770;9.212;2023-12-29T07:21:15;6.20;;;4.43;;
286;SDS011;127;48.770;9.212;2023-12-29T07:23:44;4.80;;;3.20;;
286;SDS011;127;48.770;9.212;2023-12-29T07:26:13;5.17;;;3.47;;
286;SDS011;127;48.770;9.212;2023-12-29T07:28:42;2.90;;;2.70;;
286;SDS011;127;48.770;9.212;2023-12-29T07:31:21;6.93;;;4.20;;
286;SDS011;127;48.770;9.212;2023-12-29T07:33:50;4.57;;;3.70;;
286;SDS011;127;48.770;9.212;2023-12-29T07:36:19;6.93;;;3.50;;
286;SDS011;127;48.770;9.212;2023-12-29T07:38:48;4.33;;;3.47;;
286;SDS011;127;48.770;9.212;2023-12-29T07:41:17;5.83;;;4.60;;
286;SDS011;127;48.770;9.212;2023-12-29T07:43:51;5.27;;;3.87;;
286;SDS011;127;48.770;9.212;2023-12-29T07:46:26;4.10;;;3.70;;
286;SDS011;127;48.770;9.212;2023-12-29T07:48:58;4.50;;;3.80;;
286;SDS011;127;48.770;9.212;2023-12-29T07:51:29;5.40;;;3.10;;
286;SDS011;127;48.770;9.212;2023-12-29T07:53:59;4.77;;;3.53;;
286;SDS011;127;48.770;9.212;2023-12-29T07:56:28;8.93;;;2.87;;
286;SDS011;127;48.770;9.212;2023-12-29T07:58:57;4.57;;;4.30;;
286;SDS011;127;48.770;9.212;2023-12-29T08:01:28;7.53;;;3.43;;
286;SDS011;127;48.770;9.212;2023-12-29T08:03:57;4.70;;;4.07;;
286;SDS011;127;48.770;9.212;2023-12-29T08:06:26;7.50;;;4.20;;
286;SDS011;127;48.770;9.212;2023-12-29T08:08:55;11.80;;;4.47;;
286;SDS011;127;48.770;9.212;2023-12-29T08:11:24;4.43;;;3.87;;
286;SDS011;127;48.770;9.212;2023-12-29T08:13:53;6.30;;;3.53;;
286;SDS011;127;48.770;9.212;2023-12-29T08:16:22;4.60;;;3.17;;
286;SDS011;127;48.770;9.212;2023-12-29T08:18:57;4.07;;;3.20;;
286;SDS011;127;48.770;9.212;2023-12-29T08:21:31;4.80;;;3.50;;
286;SDS011;127;48.770;9.212;2023-12-29T08:24:00;3.80;;;3.27;;
286;SDS011;127;48.770;9.212;2023-12-29T08:26:29;6.00;;;3.93;;
286;SDS011;127;48.770;9.212;2023-12-29T08:28:59;5.70;;;4.10;;
286;SDS011;127;48.770;9.212;2023-12-29T08:31:28;5.90;;;4.00;;
286;SDS011;127;48.770;9.212;2023-12-29T08:34:00;7.00;;;4.20;;
286;SDS011;127;48.770;9.212;2023-12-29T08:36:28;5.23;;;3.97;;
286;SDS011;127;48.770;9.212;2023-12-29T08:38:57;5.10;;;3.37;;
286;SDS011;127;48.770;9.212;2023-12-29T08:41:26;5.10;;;4.10;;
286;SDS011;127;48.770;9.212;2023-12-29T08:43:55;3.30;;;3.10;;
286;SDS011;127;48.770;9.212;2023-12-29T08:46:27;9.80;;;4.20;;
286;SDS011;127;48.770;9.212;2023-12-29T08:48:57;5.73;;;3.80;;
286;SDS011;127;48.770;9.212;2023-12-29T08:54:12;4.73;;;3.63;;
286;SDS011;127;48.770;9.212;2023-12-29T08:56:42;7.33;;;3.87;;
286;SDS011;127;48.770;9.212;2023-12-29T08:59:11;3.80;;;2.97;;
286;SDS011;127;48.770;9.212;2023-12-29T09:01:40;5.10;;;3.80;;
286;SDS011;127;48.770;9.212;2023-12-29T09:04:10;4.17;;;3.40;;
286;SDS011;127;48.770;9.212;2023-12-29T09:06:41;4.03;;;3.10;;
286;SDS011;127;48.770;9.212;2023-12-29T09:09:13;4.50;;;3.00;;
286;SDS011;127;48.770;9.212;2023-12-29T09:11:42;4.37;;;3.13;;
286;SDS011;127;48.770;9.212;2023-12-29T09:14:13;4.07;;;3.53;;
286;SDS011;127;48.770;9.212;2023-12-29T09:16:42;4.47;;;3.00;;
286;SDS011;127;48.770;9.212;2023-12-29T09:19:11;5.10;;;3.23;;
286;SDS011;127;48.770;9.212;2023-12-29T09:21:41;3.60;;;3.13;;
286;SDS011;127;48.770;9.212;2023-12-29T09:24:16;5.03;;;3.33;;
286;SDS011;127;48.770;9.212;2023-12-29T09:26:48;4.33;;;2.73;;
286;SDS011;127;48.770;9.212;2023-12-29T09:31:26;3.23;;;2.90;;
286;SDS011;127;48.770;9.212;2023-12-29T09:32:19;3.63;;;2.80;;
286;SDS011;127;48.770;9.212;2023-12-29T09:34:57;5.50;;;2.90;;
286;SDS011;127;48.770;9.212;2023-12-29T09:37:26;2.50;;;2.37;;
286;SDS011;127;48.770;9.212;2023-12-29T09:39:57;2.70;;;2.50;;
286;SDS011;127;48.770;9.212;2023-12-29T09:42:32;7.13;;;2.90;;
286;SDS011;127;48.770;9.212;2023-12-29T09:45:02;3.73;;;2.57;;
286;SDS011;127;48.770;9.212;2023-12-29T09:47:31;3.00;;;2.70;;
286;SDS011;127;48.770;9.212;2023-12-29T09:50:04;3.00;;;2.70;;
286;SDS011;127;48.770;9.212;2023-12-29T09:52:36;3.17;;;2.50;;
286;SDS011;127;48.770;9.212;2023-12-29T09:55:10;5.03;;;3.00;;
286;SDS011;127;48.770;9.212;2023-12-29T09:57:39;4.70;;;2.60;;
286;SDS011;127;48.770;9.212;2023-12-29T10:00:09;2.93;;;2.33;;
286;SDS011;127;48.770;9.212;2023-12-29T10:03:56;2.43;;;2.20;;
286;SDS011;127;48.770;9.212;2023-12-29T10:07:59;2.60;;;2.40;;
286;SDS011;127;48.770;9.212;2023-12-29T10:09:20;3.67;;;2.60;;
286;SDS011;127;48.770;9.212;2023-12-29T10:12:05;2.90;;;2.40;;
286;SDS011;127;48.770;9.212;2023-12-29T10:15:03;3.00;;;2.10;;
286;SDS011;127;48.770;9.212;2023-12-29T10:17:51;3.37;;;2.20;;
286;SDS011;127;48.770;9.212;2023-12-29T10:20:44;2.77;;;2.60;;
286;SDS011;127;48.770;9.212;2023-12-29T10:23:25;2.10;;;1.97;;
286;SDS011;127;48.770;9.212;2023-12-29T10:26:12;3.00;;;2.17;;
286;SDS011;127;48.770;9.212;2023-12-29T10:29:21;2.33;;;2.03;;
286;SDS011;127;48.770;9.212;2023-12-29T10:32:01;1.93;;;1.83;;
286;SDS011;127;48.770;9.212;2023-12-29T10:37:37;2.90;;;1.97;;
286;SDS011;127;48.770;9.212;2023-12-29T10:40:07;1.57;;;1.40;;
286;SDS011;127;48.770;9.212;2023-12-29T10:42:42;1.93;;;1.70;;
286;SDS011;127;48.770;9.212;2023-12-29T10:45:32;1.73;;;1.70;;
286;SDS011;127;48.770;9.212;2023-12-29T10:48:08;2.07;;;1.73;;
286;SDS011;127;48.770;9.212;2023-12-29T10:50:50;1.83;;;1.60;;
286;SDS011;127;48.770;9.212;2023-12-29T10:56:27;1.70;;;1.53;;
286;SDS011;127;48.770;9.212;2023-12-29T10:58:59;1.87;;;1.50;;
286;SDS011;127;48.770;9.212;2023-12-29T11:01:43;2.33;;;1.57;;
286;SDS011;127;48.770;9.212;2023-12-29T11:04:21;1.80;;;1.60;;
286;SDS011;127;48.770;9.212;2023-12-29T11:07:00;1.93;;;1.83;;
286;SDS011;127;48.770;9.212;2023-12-29T11:09:32;1.83;;;1.73;;
286;SDS011;127;48.770;9.212;2023-12-29T11:12:03;2.07;;;1.87;;
286;SDS011;127;48.770;9.212;2023-12-29T11:14:40;3.43;;;1.60;;
286;SDS011;127;48.770;9.212;2023-12-29T11:17:16;1.70;;;1.43;;
286;SDS011;127;48.770;9.212;2023-12-29T11:19:46;1.77;;;1.70;;
286;SDS011;127;48.770;9.212;2023-12-29T11:22:19;2.90;;;1.60;;
286;SDS011;127;48.770;9.212;2023-12-29T11:24:54;2.20;;;1.90;;
286;SDS011;127;48.770;9.212;2023-12-29T11:27:41;3.00;;;1.80;;
286;SDS011;127;48.770;9.212;2023-12-29T11:33:09;6.80;;;1.90;;
286;SDS011;127;48.770;9.212;2023-12-29T11:35:50;3.07;;;1.83;;
286;SDS011;127;48.770;9.212;2023-12-29T11:38:28;1.73;;;1.53;;
286;SDS011;127;48.770;9.212;2023-12-29T11:41:25;2.70;;;2.00;;
286;SDS011;127;48.770;9.212;2023-12-29T11:44:06;3.23;;;2.10;;
286;SDS011;127;48.770;9.212;2023-12-29T11:46:48;3.67;;;2.10;;
286;SDS011;127;48.770;9.212;2023-12-29T11:49:21;3.03;;;1.83;;
286;SDS011;127;48.770;9.212;2023-12-29T11:51:51;2.57;;;2.03;;
286;SDS011;127;48.770;9.212;2023-12-29T11:54:21;1.83;;;1.77;;
286;SDS011;127;48.770;9.212;2023-12-29T12:02:43;2.73;;;1.77;;
286;SDS011;127;48.770;9.212;2023-12-29T12:05:20;2.20;;;1.80;;
286;SDS011;127;48.770;9.212;2023-12-29T12:08:11;2.70;;;1.87;;
286;SDS011;127;48.770;9.212;2023-12-29T12:10:56;2.53;;;1.77;;
286;SDS011;127;48.770;9.212;2023-12-29T12:16:09;1.77;;;1.47;;
286;SDS011;127;48.770;9.212;2023-12-29T12:18:38;1.70;;;1.60;;
286;SDS011;127;48.770;9.212;2023-12-29T12:21:13;3.10;;;1.63;;
286;SDS011;127;48.770;9.212;2023-12-29T12:23:45;2.60;;;1.77;;
286;SDS011;127;48.770;9.212;2023-12-29T12:26:14;2.73;;;1.80;;
286;SDS011;127;48.770;9.212;2023-12-29T12:28:44;3.23;;;2.40;;
286;SDS011;127;48.770;9.212;2023-12-29T12:31:13;4.63;;;1.77;;
286;SDS011;127;48.770;9.212;2023-12-29T12:33:52;2.50;;;1.67;;
286;SDS011;127;48.770;9.212;2023-12-29T12:36:29;3.17;;;1.80;;
286;SDS011;127;48.770;9.212;2023-12-29T12:38:58;6.00;;;1.60;;
286;SDS011;127;48.770;9.212;2023-12-29T12:41:31;3.20;;;1.80;;
286;SDS011;127;48.770;9.212;2023-12-29T12:44:04;2.60;;;2.07;;
286;SDS011;127;48.770;9.212;2023-12-29T12:46:40;2.30;;;1.70;;
286;SDS011;127;48.770;9.212;2023-12-29T12:49:10;5.03;;;1.77;;
286;SDS011;127;48.770;9.212;2023-12-29T12:51:41;2.10;;;1.67;;
286;SDS011;127;48.770;9.212;2023-12-29T12:54:11;1.77;;;1.67;;
286;SDS011;127;48.770;9.212;2023-12-29T12:56:41;1.50;;;1.40;;
286;SDS011;127;48.770;9.212;2023-12-29T12:59:10;2.60;;;1.80;;
286;SDS011;127;48.770;9.212;2023-12-29T13:01:40;1.97;;;1.60;;
286;SDS011;127;48.770;9.212;2023-12-29T13:04:22;2.33;;;1.50;;
286;SDS011;127;48.770;9.212;2023-12-29T13:06:53;2.87;;;1.77;;
286;SDS011;127;48.770;9.212;2023-12-29T13:09:22;2.80;;;1.90;;
286;SDS011;127;48.770;9.212;2023-12-29T13:11:51;2.10;;;1.97;;
286;SDS011;127;48.770;9.212;2023-12-29T13:14:35;2.30;;;1.97;;
286;SDS011;127;48.770;9.212;2023-12-29T13:17:07;2.33;;;2.07;;
286;SDS011;127;48.770;9.212;2023-12-29T13:19:37;3.80;;;2.47;;
286;SDS011;127;48.770;9.212;2023-12-29T13:22:11;2.33;;;2.13;;
286;SDS011;127;48.770;9.212;2023-12-29T13:24:47;4.47;;;2.20;;
286;SDS011;127;48.770;9.212;2023-12-29T13:27:17;2.63;;;1.77;;
286;SDS011;127;48.770;9.212;2023-12-29T13:29:46;2.00;;;1.83;;
286;SDS011;127;48.770;9.212;2023-12-29T13:32:27;2.00;;;1.63;;
286;SDS011;127;48.770;9.212;2023-12-29T13:35:11;2.30;;;1.63;;
286;SDS011;127;48.770;9.212;2023-12-29T13:37:45;3.00;;;1.83;;
286;SDS011;127;48.770;9.212;2023-12-29T13:40:17;2.77;;;1.80;;
286;SDS011;127;48.770;9.212;2023-12-29T13:43:00;3.37;;;2.43;;
286;SDS011;127;48.770;9.212;2023-12-29T13:45:40;2.80;;;2.27;;
286;SDS011;127;48.770;9.212;2023-12-29T13:48:12;2.60;;;2.07;;
286;SDS011;127;48.770;9.212;2023-12-29T13:50:50;2.23;;;1.73;;
286;SDS011;127;48.770;9.212;2023-12-29T13:53:26;4.80;;;2.10;;
286;SDS011;127;48.770;9.212;2023-12-29T13:56:11;3.93;;;1.97;;
286;SDS011;127;48.770;9.212;2023-12-29T13:58:57;3.83;;;2.00;;
286;SDS011;127;48.770;9.212;2023-12-29T14:01:36;2.57;;;2.40;;
286;SDS011;127;48.770;9.212;2023-12-29T14:04:10;2.27;;;1.93;;
286;SDS011;127;48.770;9.212;2023-12-29T14:06:52;2.70;;;1.90;;
286;SDS011;127;48.770;9.212;2023-12-29T14:09:25;4.00;;;2.00;;
286;SDS011;127;48.770;9.212;2023-12-29T14:12:03;2.30;;;1.70;;
286;SDS011;127;48.770;9.212;2023-12-29T14:14:32;2.67;;;2.47;;
286;SDS011;127;48.770;9.212;2023-12-29T14:17:04;2.13;;;1.97;;
286;SDS011;127;48.770;9.212;2023-12-29T14:19:36;3.90;;;2.03;;
286;SDS011;127;48.770;9.212;2023-12-29T14:22:06;5.67;;;1.90;;
286;SDS011;127;48.770;9.212;2023-12-29T14:24:38;2.57;;;1.90;;
286;SDS011;127;48.770;9.212;2023-12-29T14:27:07;1.97;;;1.87;;
286;SDS011;127;48.770;9.212;2023-12-29T14:29:40;3.20;;;1.67;;
286;SDS011;127;48.770;9.212;2023-12-29T14:32:09;2.60;;;2.10;;
286;SDS011;127;48.770;9.212;2023-12-29T14:34:38;4.13;;;2.20;;
286;SDS011;127;48.770;9.212;2023-12-29T14:37:07;5.03;;;2.47;;
286;SDS011;127;48.770;9.212;2023-12-29T14:39:38;2.30;;;1.90;;
286;SDS011;127;48.770;9.212;2023-12-29T14:42:07;2.57;;;2.20;;
286;SDS011;127;48.770;9.212;2023-12-29T14:44:39;2.10;;;1.93;;
286;SDS011;127;48.770;9.212;2023-12-29T14:47:08;2.67;;;2.30;;
286;SDS011;127;48.770;9.212;2023-12-29T14:49:37;2.07;;;1.83;;
286;SDS011;127;48.770;9.212;2023-12-29T14:52:07;2.60;;;2.03;;
286;SDS011;127;48.770;9.212;2023-12-29T14:54:50;2.60;;;2.07;;
286;SDS011;127;48.770;9.212;2023-12-29T14:57:20;5.10;;;2.03;;
286;SDS011;127;48.770;9.212;2023-12-29T14:59:49;2.30;;;1.87;;
286;SDS011;127;48.770;9.212;2023-12-29T15:02:18;2.90;;;2.17;;
286;SDS011;127;48.770;9.212;2023-12-29T15:04:56;3.70;;;2.20;;
286;SDS011;127;48.770;9.212;2023-12-29T15:07:31;2.43;;;2.03;;
286;SDS011;127;48.770;9.212;2023-12-29T15:10:03;2.07;;;1.83;;
286;SDS011;127;48.770;9.212;2023-12-29T15:12:49;2.53;;;2.13;;
286;SDS011;127;48.770;9.212;2023-12-29T15:15:20;2.70;;;2.03;;
286;SDS011;127;48.770;9.212;2023-12-29T15:17:50;2.27;;;1.90;;
286;SDS011;127;48.770;9.212;2023-12-29T15:20:19;6.73;;;2.13;;
286;SDS011;127;48.770;9.212;2023-12-29T15:22:57;3.90;;;2.17;;
286;SDS011;127;48.770;9.212;2023-12-29T15:25:34;1.83;;;1.70;;
286;SDS011;127;48.770;9.212;2023-12-29T15:28:20;3.10;;;2.00;;
286;SDS011;127;48.770;9.212;2023-12-29T15:30:57;3.13;;;2.07;;
286;SDS011;127;48.770;9.212;2023-12-29T15:33:29;2.37;;;1.70;;
286;SDS011;127;48.770;9.212;2023-12-29T15:36:03;3.80;;;2.27;;
286;SDS011;127;48.770;9.212;2023-12-29T15:38:39;3.20;;;2.10;;
286;SDS011;127;48.770;9.212;2023-12-29T15:41:13;2.33;;;2.13;;
286;SDS011;127;48.770;9.212;2023-12-29T15:43:42;2.30;;;2.10;;
286;SDS011;127;48.770;9.212;2023-12-29T15:46:26;3.53;;;1.97;;
286;SDS011;127;48.770;9.212;2023-12-29T15:48:55;5.70;;;2.63;;
286;SDS011;127;48.770;9.212;2023-12-29T15:51:29;3.20;;;2.20;;
286;SDS011;127;48.770;9.212;2023-12-29T15:53:58;3.93;;;2.60;;
286;SDS011;127;48.770;9.212;2023-12-29T15:56:35;4.30;;;2.53;;
286;SDS011;127;48.770;9.212;2023-12-29T15:59:12;5.20;;;2.50;;
286;SDS011;127;48.770;9.212;2023-12-29T16:01:43;5.37;;;2.83;;
286;SDS011;127;48.770;9.212;2023-12-29T16:04:18;4.70;;;2.70;;
286;SDS011;127;48.770;9.212;2023-12-29T16:07:13;2.53;;;2.00;;
286;SDS011;127;48.770;9.212;2023-12-29T16:12:38;4.50;;;2.27;;
286;SDS011;127;48.770;9.212;2023-12-29T16:15:17;5.03;;;2.87;;
286;SDS011;127;48.770;9.212;2023-12-29T16:17:46;3.93;;;2.53;;
286;SDS011;127;48.770;9.212;2023-12-29T16:20:18;2.60;;;2.17;;
286;SDS011;127;48.770;9.212;2023-12-29T16:22:49;2.47;;;2.30;;
286;SDS011;127;48.770;9.212;2023-12-29T16:25:18;2.30;;;2.00;;
286;SDS011;127;48.770;9.212;2023-12-29T16:28:05;2.50;;;1.90;;
286;SDS011;127;48.770;9.212;2023-12-29T16:30:48;4.33;;;2.27;;
286;SDS011;127;48.770;9.212;2023-12-29T16:33:47;2.57;;;2.03;;
286;SDS011;127;48.770;9.212;2023-12-29T16:36:16;2.43;;;2.23;;
286;SDS011;127;48.770;9.212;2023-12-29T16:38:48;3.30;;;2.07;;
286;SDS011;127;48.770;9.212;2023-12-29T16:41:18;4.70;;;2.30;;
286;SDS011;127;48.770;9.212;2023-12-29T16:43:51;2.33;;;2.10;;